Time;durP1;ratioP1;P1;durP2;ratioP2;P2;SDS_P1;SDS_P2;PMS_P1;PMS_P2;Temp;Humidity;BMP_temperature;BMP_pressure;BME280_temperature;BME280_humidity;BME280_pressure;Samples;Min_cycle;Max_cycle;Signal;HPM_P1;HPM_P2
2023/08/15 04:22:32;;;;;;;22.90;11.88;;;;;;;19.36;100.00;100097.47;5089389;28;20386;-69
2023/08/15 04:24:58;;;;;;;17.40;11.57;;;;;;;19.44;100.00;100105.25;5089231;28;20432;-67
2023/08/15 04:27:25;;;;;;;23.08;12.80;;;;;;;19.43;100.00;100100.88;5088032;28;20123;-68
2023/08/15 04:29:50;;;;;;;20.80;13.20;;;;;;;19.45;100.00;100112.28;5087767;28;20471;-67
2023/08/15 04:32:16;;;;;;;20.83;12.02;;;;;;;19.43;100.00;100114.38;5089295;28;20574;-68
2023/08/15 04:34:41;;;;;;;19.58;13.68;;;;;;;19.45;100.00;100120.41;5088000;28;20038;-67
2023/08/15 04:37:07;;;;;;;19.23;11.10;;;;;;;19.50;100.00;100115.13;5087940;28;20097;-67
2023/08/15 04:39:33;;;;;;;19.27;10.35;;;;;;;19.41;100.00;100108.41;5087519;28;20086;-67
2023/08/15 04:41:59;;;;;;;25.02;11.82;;;;;;;19.45;100.00;100112.28;5087614;28;20036;-67
2023/08/15 04:44:25;;;;;;;27.65;16.88;;;;;;;19.49;100.00;100116.16;5087720;28;20109;-67
2023/08/15 04:46:50;;;;;;;19.15;11.05;;;;;;;19.50;100.00;100117.81;5088945;28;20131;-67
2023/08/15 04:49:16;;;;;;;25.50;13.57;;;;;;;19.50;100.00;100123.22;5087442;28;20042;-67
2023/08/15 04:51:42;;;;;;;19.77;11.63;;;;;;;19.53;100.00;100122.75;5070819;28;20017;-67
2023/08/15 04:54:07;;;;;;;22.00;11.65;;;;;;;19.44;100.00;100124.16;5088856;28;20097;-68
2023/08/15 04:56:32;;;;;;;21.65;12.82;;;;;;;19.52;100.00;100123.81;5087543;28;20032;-68
2023/08/15 04:58:58;;;;;;;18.17;11.05;;;;;;;19.50;100.00;100126.75;5088432;28;20085;-68
2023/08/15 05:01:24;;;;;;;22.17;12.25;;;;;;;19.47;100.00;100135.31;5087518;28;20506;-67
2023/08/15 05:03:49;;;;;;;19.95;11.32;;;;;;;19.56;100.00;100143.06;5087532;28;20036;-68
2023/08/15 05:06:15;;;;;;;18.42;11.90;;;;;;;19.56;100.00;100137.66;5087325;28;20036;-68
2023/08/15 05:08:41;;;;;;;22.88;12.43;;;;;;;19.60;100.00;100138.88;5086960;28;20032;-67
2023/08/15 05:11:08;;;;;;;19.02;11.35;;;;;;;19.60;100.00;100133.47;5087245;28;20077;-68
2023/08/15 05:13:33;;;;;;;20.48;10.75;;;;;;;19.53;100.00;100142.47;5087224;28;20028;-67
2023/08/15 05:15:59;;;;;;;20.17;11.10;;;;;;;19.59;100.00;100140.75;5087128;28;20051;-68
2023/08/15 05:18:25;;;;;;;22.35;10.45;;;;;;;19.63;100.00;100152.75;5086787;28;20402;-67
2023/08/15 05:20:50;;;;;;;19.13;10.80;;;;;;;19.63;100.00;100165.44;5086862;28;20498;-68
2023/08/15 05:23:16;;;;;;;20.88;10.25;;;;;;;19.68;100.00;100176.34;5087018;28;20036;-68
2023/08/15 05:25:43;;;;;;;18.15;10.30;;;;;;;19.71;100.00;100175.88;5086953;28;20032;-68
2023/08/15 05:28:09;;;;;;;;;;;;;;;19.74;100.00;100176.22;5090562;28;20027;-63
2023/08/15 05:30:36;;;;;;;19.45;10.50;;;;;;;19.82;100.00;100190.44;5087203;28;19912;-62
2023/08/15 05:33:02;;;;;;;19.05;11.38;;;;;;;19.91;100.00;100183.63;5077966;28;20044;-63
2023/08/15 05:35:28;;;;;;;20.40;11.02;;;;;;;20.01;100.00;100183.84;5074469;28;20104;-64
2023/08/15 05:37:54;;;;;;;22.27;10.98;;;;;;;20.12;100.00;100179.50;5073020;28;20040;-60
2023/08/15 05:40:20;;;;;;;19.35;10.93;;;;;;;20.22;100.00;100175.13;5072728;28;20040;-60
2023/08/15 05:42:45;;;;;;;15.60;10.63;;;;;;;20.33;100.00;100179.69;5072991;28;20082;-59
2023/08/15 05:45:11;;;;;;;18.20;12.10;;;;;;;20.43;100.00;100183.66;5073954;28;20056;-60
2023/08/15 05:47:36;;;;;;;17.90;10.43;;;;;;;20.52;100.00;100190.38;5074212;28;20036;-61
2023/08/15 05:50:02;;;;;;;21.73;11.50;;;;;;;20.63;100.00;100191.41;5073841;28;20549;-60
2023/08/15 05:52:28;;;;;;;21.35;11.40;;;;;;;20.73;100.00;100183.47;5073983;28;20051;-60
2023/08/15 05:54:53;;;;;;;15.98;10.13;;;;;;;20.80;100.00;100171.47;5073884;28;20071;-59
2023/08/15 05:57:19;;;;;;;16.48;10.43;;;;;;;20.88;100.00;100172.13;5073938;28;20037;-57
2023/08/15 05:59:45;;;;;;;18.48;11.40;;;;;;;20.91;100.00;100177.03;5073689;28;20040;-59
2023/08/15 06:02:11;;;;;;;22.45;11.02;;;;;;;20.96;100.00;100172.56;5074026;28;20400;-59
2023/08/15 06:04:37;;;;;;;17.27;10.40;;;;;;;21.01;100.00;100172.66;5073958;28;20197;-60
2023/08/15 06:07:03;;;;;;;21.15;10.50;;;;;;;21.09;100.00;100171.44;5073854;28;20498;-59
2023/08/15 06:09:28;;;;;;;21.00;10.98;;;;;;;21.12;100.00;100170.91;5073658;28;20063;-61
2023/08/15 06:11:54;;;;;;;18.40;10.50;;;;;;;21.17;100.00;100175.63;5073519;28;20399;-60
2023/08/15 06:14:20;;;;;;;20.02;10.10;;;;;;;21.17;100.00;100173.72;5073770;28;20060;-60
2023/08/15 06:16:46;;;;;;;17.60;9.70;;;;;;;21.21;100.00;100177.59;5073808;28;20043;-60
2023/08/15 06:19:12;;;;;;;21.77;10.30;;;;;;;21.25;100.00;100184.16;5073284;28;20033;-59
2023/08/15 06:21:37;;;;;;;17.50;9.65;;;;;;;21.26;100.00;100183.09;5073489;28;20043;-61
2023/08/15 06:24:03;;;;;;;20.50;10.63;;;;;;;21.30;100.00;100192.41;5073463;28;20101;-61
2023/08/15 06:26:28;;;;;;;18.98;9.80;;;;;;;21.35;100.00;100191.69;5073271;28;20039;-59
2023/08/15 06:28:54;;;;;;;23.75;10.95;;;;;;;21.37;100.00;100193.06;5073087;28;20042;-60
2023/08/15 06:31:19;;;;;;;19.00;10.27;;;;;;;21.41;100.00;100193.41;5073406;28;20056;-58
2023/08/15 06:33:44;;;;;;;18.83;12.20;;;;;;;21.47;100.00;100191.59;5073432;28;20033;-60
2023/08/15 06:36:10;;;;;;;17.27;10.55;;;;;;;21.51;100.00;100190.84;5073109;28;20040;-59
2023/08/15 06:38:35;;;;;;;17.13;12.05;;;;;;;21.56;100.00;100193.66;5073235;28;20051;-56
2023/08/15 06:41:02;;;;;;;19.55;12.90;;;;;;;21.60;100.00;100193.97;5073043;28;20395;-60
2023/08/15 06:43:28;;;;;;;20.08;12.95;;;;;;;21.68;100.00;100204.41;5072910;28;20115;-59
2023/08/15 06:45:54;;;;;;;21.77;13.52;;;;;;;21.72;100.00;100210.16;5072301;28;20044;-60
2023/08/15 06:48:19;;;;;;;19.80;12.98;;;;;;;21.74;100.00;100211.56;5072905;28;20047;-61
2023/08/15 06:50:44;;;;;;;23.48;13.90;;;;;;;21.78;100.00;100218.13;5071634;28;20037;-60
2023/08/15 06:53:10;;;;;;;24.90;14.55;;;;;;;21.84;100.00;100221.72;5072838;28;20570;-60
2023/08/15 06:55:35;;;;;;;21.92;13.00;;;;;;;21.85;100.00;100221.50;5072802;28;20415;-60
2023/08/15 06:58:01;;;;;;;22.10;13.23;;;;;;;21.90;100.00;100223.44;5072991;28;20040;-60
2023/08/15 07:00:26;;;;;;;24.40;13.93;;;;;;;21.91;100.00;100220.50;5072655;28;20093;-59
2023/08/15 07:02:52;;;;;;;22.45;13.85;;;;;;;21.99;100.00;100213.81;5072957;28;20036;-59
2023/08/15 07:05:17;;;;;;;23.30;13.25;;;;;;;22.08;100.00;100204.19;5072777;28;20041;-60
2023/08/15 07:07:42;;;;;;;22.98;13.30;;;;;;;22.22;100.00;100204.66;5072822;28;20036;-60
2023/08/15 07:10:10;;;;;;;19.73;13.15;;;;;;;22.37;100.00;100199.47;5072461;28;20040;-70
2023/08/15 07:12:35;;;;;;;19.20;13.40;;;;;;;22.52;100.00;100192.59;5071375;28;20044;-69
2023/08/15 07:15:01;;;;;;;22.83;12.32;;;;;;;22.63;100.00;100191.63;5072638;28;20029;-69
2023/08/15 07:17:27;;;;;;;23.35;12.45;;;;;;;22.72;100.00;100188.19;5072521;28;20040;-69
2023/08/15 07:19:52;;;;;;;17.80;11.48;;;;;;;22.89;100.00;100192.78;5072352;28;20063;-69
2023/08/15 07:22:18;;;;;;;18.80;11.32;;;;;;;23.04;100.00;100198.34;5072397;28;20119;-69
2023/08/15 07:24:43;;;;;;;18.63;12.38;;;;;;;23.17;100.00;100186.25;5072527;28;20042;-69
2023/08/15 07:27:09;;;;;;;17.60;11.10;;;;;;;23.31;100.00;100182.03;5072381;28;20090;-69
2023/08/15 07:29:34;;;;;;;20.92;11.23;;;;;;;23.46;100.00;100184.84;5072188;28;20042;-70
2023/08/15 07:32:00;;;;;;;20.02;11.63;;;;;;;23.60;100.00;100189.84;5072325;28;20120;-69
2023/08/15 07:34:25;;;;;;;17.80;10.95;;;;;;;23.70;100.00;100198.13;5072304;28;20126;-69
2023/08/15 07:36:51;;;;;;;16.67;11.02;;;;;;;23.80;100.00;100190.06;5070975;28;20028;-69
2023/08/15 07:39:16;;;;;;;17.33;10.10;;;;;;;23.86;100.00;100197.13;5072106;28;20108;-68
2023/08/15 07:41:41;;;;;;;14.52;9.68;;;;;;;23.89;100.00;100195.81;5070967;28;20036;-69
2023/08/15 07:44:07;;;;;;;19.05;9.98;;;;;;;23.92;100.00;100196.09;5072135;28;20090;-70
2023/08/15 07:46:33;;;;;;;17.17;9.88;;;;;;;23.96;100.00;100194.50;5072128;28;20041;-69
2023/08/15 07:48:58;;;;;;;12.38;9.27;;;;;;;24.01;100.00;100188.28;5071890;28;20055;-68
2023/08/15 07:51:24;;;;;;;12.48;10.10;;;;;;;24.10;100.00;100186.69;5072055;28;20127;-69
2023/08/15 07:53:49;;;;;;;15.50;9.85;;;;;;;24.18;100.00;100185.34;5071903;28;20127;-68
2023/08/15 07:56:15;;;;;;;15.77;9.95;;;;;;;24.20;100.00;100185.94;5071722;28;20087;-70
2023/08/15 07:58:40;;;;;;;13.43;9.85;;;;;;;24.26;100.00;100187.59;5071813;28;20106;-70
2023/08/15 08:01:05;;;;;;;14.13;10.02;;;;;;;24.37;100.00;100192.00;5071984;28;20036;-70
2023/08/15 08:03:32;;;;;;;18.73;11.30;;;;;;;24.44;100.00;100198.03;5072044;28;20040;-70
2023/08/15 08:05:57;;;;;;;18.73;10.55;;;;;;;24.41;100.00;100203.19;5071821;28;20044;-70
2023/08/15 08:08:22;;;;;;;18.40;10.65;;;;;;;24.45;100.00;100191.53;5071689;28;20040;-70
2023/08/15 08:10:48;;;;;;;16.42;9.43;;;;;;;24.49;100.00;100197.25;5071847;28;20432;-70
2023/08/15 08:13:16;;;;;;;17.77;11.80;;;;;;;24.55;100.00;100194.28;5071869;28;20394;-70
2023/08/15 08:15:43;;;;;;;18.58;11.75;;;;;;;24.59;100.00;100189.13;5071809;28;20501;-70
2023/08/15 08:18:08;;;;;;;20.20;13.10;;;;;;;24.59;100.00;100186.41;5071758;28;20082;-70
2023/08/15 08:20:34;;;;;;;22.17;13.57;;;;;;;24.60;100.00;100186.13;5071431;28;20449;-70
2023/08/15 08:22:59;;;;;;;17.02;12.48;;;;;;;24.61;100.00;100195.94;5071898;28;20433;-70
2023/08/15 08:25:26;;;;;;;20.23;12.07;;;;;;;24.66;100.00;100197.03;5071622;28;20064;-70
2023/08/15 08:27:51;;;;;;;14.88;11.73;;;;;;;24.73;100.00;100194.88;5071649;28;20446;-70
2023/08/15 08:30:19;;;;;;;31.40;14.50;;;;;;;24.90;100.00;100190.00;5071495;28;20123;-70
2023/08/15 08:32:44;;;;;;;15.70;10.80;;;;;;;24.98;100.00;100186.78;5071729;28;20080;-70
2023/08/15 08:35:11;;;;;;;18.23;12.82;;;;;;;24.98;100.00;100192.22;5071519;28;20038;-70
2023/08/15 08:37:37;;;;;;;22.63;12.25;;;;;;;25.06;100.00;100189.00;5071622;28;20033;-70
2023/08/15 08:40:05;;;;;;;20.38;11.57;;;;;;;25.11;100.00;100189.00;5071330;28;20438;-70
2023/08/15 08:42:31;;;;;;;17.83;11.30;;;;;;;25.22;100.00;100184.38;5071632;28;20123;-70
2023/08/15 08:44:58;;;;;;;19.80;11.52;;;;;;;25.38;100.00;100188.75;5071557;28;20040;-67
2023/08/15 08:47:28;;;;;;;19.95;11.65;;;;;;;25.54;95.46;100200.47;5071467;28;20028;-70
2023/08/15 08:49:57;;;;;;;16.77;11.13;;;;;;;25.58;95.02;100206.19;5071153;28;20052;-68
2023/08/15 08:52:24;;;;;;;20.45;11.70;;;;;;;25.71;95.21;100217.38;5070000;28;20033;-68
2023/08/15 08:54:50;;;;;;;16.95;11.00;;;;;;;25.76;95.18;100219.31;5071511;28;20044;-70
2023/08/15 08:57:18;;;;;;;18.25;11.13;;;;;;;25.79;95.83;100221.47;5071271;28;20048;-68
2023/08/15 08:59:45;;;;;;;18.08;10.82;;;;;;;25.91;95.86;100237.56;5071224;28;20130;-67
2023/08/15 09:02:19;;;;;;;19.35;11.43;;;;;;;25.99;92.29;100228.81;5071390;28;20029;-68
2023/08/15 09:04:45;;;;;;;16.98;10.25;;;;;;;26.07;94.91;100228.25;5071331;28;20045;-68
2023/08/15 09:07:10;;;;;;;17.23;10.57;;;;;;;26.16;94.60;100229.34;5071499;28;20570;-68
2023/08/15 09:09:36;;;;;;;17.45;10.57;;;;;;;26.24;93.97;100227.94;5074833;28;20120;-69
2023/08/15 09:12:01;;;;;;;14.68;10.27;;;;;;;26.31;92.95;100230.38;5075024;28;20419;-68
2023/08/15 09:14:27;;;;;;;15.40;10.32;;;;;;;26.38;91.77;100229.00;5074991;28;20039;-68
2023/08/15 09:16:52;;;;;;;16.02;10.75;;;;;;;26.47;93.01;100229.25;5074797;28;20044;-69
2023/08/15 09:19:18;;;;;;;14.13;10.10;;;;;;;26.66;91.80;100235.72;5074646;28;20045;-68
2023/08/15 09:21:43;;;;;;;13.82;9.75;;;;;;;26.90;89.20;100233.16;5074924;28;20121;-68
2023/08/15 09:24:09;;;;;;;17.05;10.25;;;;;;;27.13;90.14;100234.44;5074846;28;20451;-68
2023/08/15 09:26:36;;;;;;;16.60;9.25;;;;;;;27.25;87.74;100228.59;5074772;28;20094;-68
2023/08/15 09:29:03;;;;;;;13.15;9.43;;;;;;;27.44;86.40;100228.72;5074481;28;20086;-68
2023/08/15 09:31:29;;;;;;;15.35;8.93;;;;;;;27.56;85.56;100229.19;5074628;28;20044;-68
2023/08/15 09:33:55;;;;;;;14.43;9.25;;;;;;;27.78;86.04;100236.97;5074572;28;20037;-68
2023/08/15 09:36:23;;;;;;;13.23;8.70;;;;;;;27.70;80.24;100235.66;5074598;28;20044;-68
2023/08/15 09:38:50;;;;;;;12.93;8.77;;;;;;;27.66;81.88;100247.44;5074358;28;20082;-68
2023/08/15 09:41:15;;;;;;;11.48;8.60;;;;;;;27.64;85.88;100244.16;5074609;28;20086;-68
2023/08/15 09:43:51;;;;;;;11.75;8.45;;;;;;;27.46;84.32;100242.97;5074529;28;20040;-69
2023/08/15 09:46:18;;;;;;;12.23;9.02;;;;;;;27.41;84.14;100246.53;5074454;28;20036;-69
2023/08/15 09:48:48;;;;;;;;;;;;;;;27.49;82.64;100247.84;5073208;28;20048;-68
2023/08/15 09:51:17;;;;;;;16.67;9.00;;;;;;;27.50;83.91;100246.72;5074341;28;19920;-69
2023/08/15 09:53:44;;;;;;;12.27;9.52;;;;;;;27.50;86.76;100258.50;5074573;28;20064;-69
2023/08/15 09:56:11;;;;;;;13.20;8.55;;;;;;;27.50;86.31;100261.22;5074415;28;20033;-69
2023/08/15 09:58:38;;;;;;;14.27;8.43;;;;;;;27.45;88.45;100261.28;5074112;28;20491;-69
2023/08/15 10:01:06;;;;;;;13.38;9.23;;;;;;;27.40;86.60;100258.59;5074153;28;20039;-69
2023/08/15 10:03:39;;;;;;;12.63;8.30;;;;;;;27.42;88.14;100263.75;5074092;28;20028;-69
2023/08/15 10:06:07;;;;;;;20.27;9.30;;;;;;;27.31;88.42;100266.56;5074093;28;20041;-69
2023/08/15 10:08:37;;;;;;;13.15;9.05;;;;;;;27.31;87.26;100274.75;5073835;28;20044;-69
2023/08/15 10:11:07;;;;;;;12.20;8.57;;;;;;;27.34;86.93;100283.50;5074001;28;20040;-69
2023/08/15 10:13:36;;;;;;;16.63;9.70;;;;;;;27.24;87.89;100285.19;5073839;28;20064;-69
2023/08/15 10:16:03;;;;;;;12.38;8.77;;;;;;;27.20;89.00;100300.53;5073958;28;20033;-69
2023/08/15 10:18:29;;;;;;;12.52;8.52;;;;;;;27.22;88.37;100306.53;5073534;28;20400;-69
2023/08/15 10:20:57;;;;;;;13.82;8.73;;;;;;;27.16;90.14;100313.13;5063487;28;20102;-69
2023/08/15 10:23:34;;;;;;;16.80;8.30;;;;;;;27.16;88.95;100313.13;5062441;28;20052;-69
2023/08/15 10:26:01;;;;;;;11.07;8.43;;;;;;;27.12;89.61;100309.31;5062733;28;20033;-67
2023/08/15 10:28:28;;;;;;;14.50;8.18;;;;;;;27.15;90.15;100316.97;5062643;28;20097;-69
2023/08/15 10:30:54;;;;;;;;;;;;;;;27.13;88.34;100316.44;5063383;28;20040;-69
2023/08/15 10:33:28;;;;;;;13.33;8.37;;;;;;;27.16;90.15;100317.78;5062576;28;19919;-69
2023/08/15 10:35:54;;;;;;;17.25;9.07;;;;;;;27.14;87.49;100318.06;5062034;28;20111;-58
2023/08/15 10:38:43;;;;;;;11.75;8.90;;;;;;;26.95;85.58;100315.13;5063551;28;20060;-59
2023/08/15 10:41:17;;;;;;;15.82;8.30;;;;;;;26.87;86.72;100312.16;5066581;28;20086;-62
2023/08/15 10:43:51;;;;;;;9.00;7.82;;;;;;;26.73;87.99;100309.19;5073516;28;20036;-65
2023/08/15 10:46:23;;;;;;;14.25;8.48;;;;;;;26.65;84.01;100315.22;5073306;28;20040;-65
2023/08/15 10:48:51;;;;;;;15.70;8.52;;;;;;;26.60;82.64;100318.78;5073037;28;20060;-65
2023/08/15 10:51:20;;;;;;;11.90;7.72;;;;;;;26.56;83.10;100305.97;5073158;28;20450;-65
2023/08/15 10:54:06;;;;;;;15.25;7.88;;;;;;;26.52;84.83;100311.16;5073285;28;20036;-65
2023/08/15 10:56:34;;;;;;;14.52;8.48;;;;;;;26.56;84.96;100304.06;5073260;28;20068;-65
2023/08/15 10:59:11;;;;;;;12.45;8.18;;;;;;;26.63;85.53;100304.59;5072933;28;20083;-65
2023/08/15 11:01:39;;;;;;;10.85;7.90;;;;;;;26.88;86.04;100311.06;5073020;28;20029;-65
2023/08/15 11:04:09;;;;;;;9.85;7.32;;;;;;;27.05;85.02;100315.09;5073042;28;20044;-65
2023/08/15 11:06:46;;;;;;;8.88;7.40;;;;;;;27.15;85.76;100306.03;5073019;28;20793;-65
2023/08/15 11:09:12;;;;;;;10.70;8.02;;;;;;;27.29;83.54;100306.22;5072751;28;20040;-65
2023/08/15 11:11:38;;;;;;;15.30;8.68;;;;;;;27.38;83.80;100307.25;5066772;28;20116;-65
2023/08/15 11:14:03;;;;;;;10.10;7.68;;;;;;;27.52;85.36;100288.31;5072844;28;20232;-65
2023/08/15 11:16:29;;;;;;;16.27;8.50;;;;;;;27.76;82.28;100294.72;5072622;28;20123;-65
2023/08/15 11:18:57;;;;;;;11.63;7.93;;;;;;;27.84;84.52;100296.00;5054499;28;20044;-65
2023/08/15 11:21:28;;;;;;;13.25;8.20;;;;;;;27.94;85.12;100297.84;5052635;28;20063;-65
2023/08/15 11:23:57;;;;;;;12.55;7.78;;;;;;;27.91;85.85;100299.25;5052612;28;20033;-66
2023/08/15 11:26:23;;;;;;;15.00;8.23;;;;;;;28.24;79.79;100294.03;5052477;28;20040;-65
2023/08/15 11:28:48;;;;;;;11.90;7.97;;;;;;;28.53;74.12;100291.25;5052290;28;20384;-65
2023/08/15 11:31:16;;;;;;;12.20;8.18;;;;;;;28.87;74.25;100282.91;5051929;28;20399;-66
2023/08/15 11:33:42;;;;;;;10.45;7.53;;;;;;;28.97;76.89;100280.06;5052443;28;20033;-65
2023/08/15 11:36:10;;;;;;;12.60;8.00;;;;;;;29.26;72.53;100288.16;5052336;28;20037;-65
2023/08/15 11:38:37;;;;;;;14.02;8.85;;;;;;;29.59;69.55;100277.25;5056753;28;20559;-64
2023/08/15 11:41:04;;;;;;;11.27;8.02;;;;;;;29.51;68.61;100267.78;5072389;28;20036;-63
2023/08/15 11:43:30;;;;;;;10.60;7.80;;;;;;;29.28;64.30;100271.38;5072316;28;20040;-64
2023/08/15 11:45:56;;;;;;;9.32;7.53;;;;;;;29.26;63.20;100277.16;5066184;28;20041;-65
2023/08/15 11:48:22;;;;;;;8.15;6.40;;;;;;;29.80;62.67;100286.81;5062885;28;20048;-65
2023/08/15 11:50:48;;;;;;;11.52;6.97;;;;;;;29.89;59.72;100282.25;5068593;28;20044;-64
2023/08/15 11:53:15;;;;;;;8.25;6.20;;;;;;;29.80;61.33;100284.06;5069072;28;20052;-64
2023/08/15 11:55:42;;;;;;;7.57;5.80;;;;;;;29.50;58.85;100295.50;5067661;28;20045;-64
2023/08/15 11:58:28;;;;;;;10.35;6.05;;;;;;;29.33;59.33;100294.06;5071037;28;20024;-66
2023/08/15 12:00:55;;;;;;;8.40;5.70;;;;;;;29.83;61.36;100290.88;5068653;28;20031;-65
2023/08/15 12:03:20;;;;;;;12.02;6.35;;;;;;;30.57;61.15;100299.16;5060847;28;20104;-65
2023/08/15 12:05:46;;;;;;;8.90;5.72;;;;;;;31.20;60.37;100290.97;5061776;28;20098;-65
2023/08/15 12:08:16;;;;;;;9.13;6.25;;;;;;;32.18;58.41;100298.53;5059809;28;20040;-65
2023/08/15 12:10:42;;;;;;;9.93;6.40;;;;;;;32.78;54.34;100299.91;5062314;28;20040;-65
2023/08/15 12:13:08;;;;;;;6.57;5.80;;;;;;;33.32;50.63;100306.03;5061774;28;20055;-65
2023/08/15 12:15:33;;;;;;;8.30;5.37;;;;;;;33.06;48.09;100304.09;5060387;28;20065;-65
2023/08/15 12:17:59;;;;;;;6.30;4.67;;;;;;;33.48;48.02;100309.97;5060694;28;20377;-65
2023/08/15 12:20:24;;;;;;;6.70;3.83;;;;;;;33.36;44.02;100304.25;5060201;28;20036;-65
2023/08/15 12:22:50;;;;;;;6.53;4.33;;;;;;;33.90;44.80;100310.25;5063770;28;20055;-65
2023/08/15 12:25:15;;;;;;;7.20;3.30;;;;;;;34.18;43.52;100296.91;5058358;28;20043;-65
2023/08/15 12:27:41;;;;;;;5.17;3.30;;;;;;;34.28;44.50;100300.09;5061807;28;20043;-65
2023/08/15 12:30:07;;;;;;;7.87;3.53;;;;;;;34.65;43.75;100305.19;5059851;28;20037;-65
2023/08/15 12:32:33;;;;;;;6.68;3.58;;;;;;;34.92;42.69;100303.94;5061956;28;20077;-65
2023/08/15 12:34:58;;;;;;;6.57;3.83;;;;;;;35.16;42.79;100292.22;5059584;28;20029;-65
2023/08/15 12:37:24;;;;;;;4.67;3.43;;;;;;;35.43;41.30;100290.88;5059449;28;20036;-65
2023/08/15 12:39:49;;;;;;;3.77;2.50;;;;;;;35.17;42.11;100291.06;5061997;28;20483;-65
2023/08/15 12:42:15;;;;;;;5.03;2.70;;;;;;;35.35;40.84;100295.31;5061270;28;20287;-65
2023/08/15 12:44:42;;;;;;;3.67;2.72;;;;;;;35.46;39.99;100290.19;5062069;28;20048;-65
2023/08/15 12:47:09;;;;;;;3.03;2.17;;;;;;;35.58;38.50;100282.75;5066447;28;20044;-65
2023/08/15 12:49:38;;;;;;;3.53;2.10;;;;;;;35.34;39.43;100285.38;5065377;28;20041;-65
2023/08/15 12:52:06;;;;;;;2.70;2.17;;;;;;;34.87;38.64;100280.00;5065774;28;20048;-65
2023/08/15 12:54:32;;;;;;;3.95;2.20;;;;;;;35.24;39.29;100286.59;5064115;28;20503;-65
2023/08/15 12:56:58;;;;;;;4.18;2.10;;;;;;;35.22;39.52;100286.13;5065078;28;20032;-65
2023/08/15 12:59:23;;;;;;;3.40;2.10;;;;;;;35.35;40.48;100285.06;5065511;28;20041;-65
2023/08/15 13:01:49;;;;;;;3.77;2.00;;;;;;;34.74;42.15;100284.63;5069421;28;20119;-65
2023/08/15 13:04:15;;;;;;;4.37;1.93;;;;;;;34.49;40.81;100283.63;5075350;28;20056;-65
2023/08/15 13:06:41;;;;;;;2.53;2.00;;;;;;;35.16;40.85;100284.72;5075064;28;20278;-65
2023/08/15 13:09:09;;;;;;;4.13;2.10;;;;;;;34.47;40.95;100276.81;5074921;28;20476;-65
2023/08/15 13:11:35;;;;;;;5.30;1.90;;;;;;;33.89;42.65;100281.00;5074995;28;20392;-64
2023/08/15 13:14:03;;;;;;;5.10;1.98;;;;;;;34.24;42.83;100282.56;5074891;28;20036;-64
2023/08/15 13:16:28;;;;;;;2.63;1.90;;;;;;;33.69;44.14;100282.50;5074735;28;20066;-64
2023/08/15 13:18:53;;;;;;;3.67;2.07;;;;;;;33.80;43.42;100281.03;5074628;28;20036;-64
2023/08/15 13:21:19;;;;;;;2.80;2.03;;;;;;;33.86;42.24;100287.22;5074736;28;20403;-64
2023/08/15 13:23:44;;;;;;;2.90;1.87;;;;;;;33.83;42.49;100285.91;5074746;28;20089;-64
2023/08/15 13:26:10;;;;;;;3.43;1.80;;;;;;;34.24;43.18;100279.00;5059327;28;20044;-65
2023/08/15 13:28:35;;;;;;;3.53;1.93;;;;;;;34.15;42.73;100280.97;5054580;28;20123;-64
2023/08/15 13:31:01;;;;;;;2.80;2.13;;;;;;;33.74;42.83;100282.34;5054706;28;20043;-65
2023/08/15 13:33:26;;;;;;;2.57;1.67;;;;;;;33.15;44.86;100280.06;5054712;28;20377;-64
2023/08/15 13:35:51;;;;;;;2.10;1.60;;;;;;;33.52;45.74;100286.13;5054663;28;20041;-65
2023/08/15 13:38:17;;;;;;;4.63;1.90;;;;;;;33.22;44.34;100288.66;5054629;28;20488;-65
2023/08/15 13:40:42;;;;;;;3.07;1.83;;;;;;;33.50;43.28;100293.09;5054385;28;20033;-64
2023/08/15 13:43:08;;;;;;;2.03;1.70;;;;;;;33.08;42.82;100296.28;5054679;28;20487;-65
2023/08/15 13:45:33;;;;;;;3.00;1.67;;;;;;;32.40;44.80;100294.91;5054509;28;20090;-64
2023/08/15 13:48:00;;;;;;;3.23;2.00;;;;;;;31.95;45.06;100297.75;5054558;28;20045;-64
2023/08/15 13:50:25;;;;;;;2.97;1.95;;;;;;;31.81;46.29;100300.56;5054036;28;20132;-64
2023/08/15 13:52:51;;;;;;;2.23;1.60;;;;;;;31.55;48.04;100291.28;5054006;28;20128;-64
2023/08/15 13:55:16;;;;;;;4.37;1.70;;;;;;;31.25;49.55;100281.81;5054031;28;20049;-64
2023/08/15 13:57:42;;;;;;;2.03;1.60;;;;;;;31.00;49.21;100291.41;5054262;28;20032;-64
2023/08/15 14:00:08;;;;;;;2.80;2.00;;;;;;;30.66;52.39;100287.16;5053936;28;20399;-64
2023/08/15 14:02:36;;;;;;;2.88;1.60;;;;;;;30.76;50.66;100286.16;5054078;28;20548;-64
2023/08/15 14:05:02;;;;;;;4.17;2.27;;;;;;;30.79;52.09;100289.09;5054366;28;20124;-64
2023/08/15 14:07:27;;;;;;;2.03;1.60;;;;;;;30.51;53.67;100276.44;5054001;28;20045;-64
2023/08/15 14:09:53;;;;;;;3.17;1.80;;;;;;;30.24;53.50;100280.00;5053800;28;20086;-64
2023/08/15 14:12:18;;;;;;;2.20;1.47;;;;;;;30.09;53.05;100283.00;5054064;28;20044;-64
2023/08/15 14:14:43;;;;;;;2.20;1.63;;;;;;;30.00;55.64;100269.16;5053900;28;20487;-64
2023/08/15 14:17:09;;;;;;;2.47;1.73;;;;;;;29.67;54.98;100273.84;5053828;28;20041;-64
2023/08/15 14:19:34;;;;;;;2.80;1.80;;;;;;;29.48;55.65;100268.34;5053609;28;20045;-65
2023/08/15 14:22:00;;;;;;;4.30;2.20;;;;;;;29.41;57.29;100268.72;5053814;28;20064;-65
2023/08/15 14:24:25;;;;;;;3.03;2.07;;;;;;;29.53;58.09;100272.97;5053812;28;20082;-64
2023/08/15 14:26:50;;;;;;;4.38;1.88;;;;;;;29.41;58.64;100266.00;5053668;28;20040;-64
2023/08/15 14:29:16;;;;;;;3.53;2.10;;;;;;;29.40;57.47;100272.56;5053440;28;20036;-64
2023/08/15 14:31:41;;;;;;;4.93;1.80;;;;;;;29.51;57.84;100273.25;5053716;28;20033;-64
2023/08/15 14:34:08;;;;;;;2.53;1.60;;;;;;;29.52;57.86;100261.16;5053531;28;20407;-64
2023/08/15 14:36:35;;;;;;;4.18;1.90;;;;;;;29.43;57.79;100255.53;5053451;28;20037;-64
2023/08/15 14:39:01;;;;;;;2.80;1.80;;;;;;;29.59;58.59;100263.53;5053288;28;20122;-64
2023/08/15 14:41:26;;;;;;;1.92;1.48;;;;;;;29.32;55.21;100255.97;5053459;28;20069;-64
2023/08/15 14:43:52;;;;;;;2.22;1.65;;;;;;;29.25;58.30;100253.59;5053429;28;20041;-64
2023/08/15 14:46:17;;;;;;;2.65;1.73;;;;;;;29.15;55.48;100256.53;5053294;28;20114;-64
2023/08/15 14:48:42;;;;;;;3.10;1.63;;;;;;;29.09;56.28;100253.03;5053131;28;20045;-64
2023/08/15 14:51:08;;;;;;;2.72;1.77;;;;;;;29.14;57.51;100263.09;5053192;28;20079;-64
2023/08/15 14:53:34;;;;;;;1.92;1.30;;;;;;;28.87;59.35;100255.47;5053255;28;20128;-64
2023/08/15 14:56:00;;;;;;;2.83;1.65;;;;;;;28.75;59.76;100255.91;5053094;28;20048;-64
2023/08/15 14:58:27;;;;;;;2.45;1.67;;;;;;;28.55;59.19;100270.66;5052910;28;20049;-65
2023/08/15 15:00:52;;;;;;;2.47;1.83;;;;;;;28.46;59.18;100264.22;5052999;28;20484;-64
2023/08/15 15:03:17;;;;;;;2.60;1.60;;;;;;;28.32;59.46;100271.50;5053081;28;20098;-64
2023/08/15 15:05:43;;;;;;;2.10;1.90;;;;;;;28.18;59.99;100260.41;5052086;28;20037;-64
2023/08/15 15:08:08;;;;;;;3.00;1.60;;;;;;;28.09;59.64;100265.66;5052935;28;20053;-64
2023/08/15 15:10:35;;;;;;;2.50;1.80;;;;;;;28.22;60.66;100253.22;5052684;28;20045;-64
2023/08/15 15:13:00;;;;;;;3.25;2.13;;;;;;;28.34;60.41;100269.28;5052829;28;20064;-64
2023/08/15 15:15:26;;;;;;;2.08;1.58;;;;;;;28.34;58.77;100269.28;5052687;28;20072;-64
2023/08/15 15:17:51;;;;;;;2.85;1.95;;;;;;;28.32;59.73;100275.06;5052641;28;20037;-64
2023/08/15 15:20:16;;;;;;;2.63;2.00;;;;;;;28.04;61.21;100262.19;5052497;28;20063;-64
2023/08/15 15:22:42;;;;;;;4.20;1.65;;;;;;;27.96;61.99;100265.53;5052728;28;20083;-64
2023/08/15 15:25:08;;;;;;;3.17;1.70;;;;;;;27.76;61.25;100261.88;5052638;28;20080;-64
2023/08/15 15:27:34;;;;;;;3.35;2.00;;;;;;;27.73;61.25;100262.47;5052655;28;20044;-64
2023/08/15 15:29:59;;;;;;;3.40;1.70;;;;;;;27.55;63.63;100258.47;5052308;28;20041;-64
2023/08/15 15:32:25;;;;;;;2.78;1.52;;;;;;;27.69;61.87;100263.31;5052379;28;20456;-64